createdAt,value
2018-09-04T00:00:06.876Z,23.07
2018-09-04T00:00:37.996Z,23.06
2018-09-04T00:01:09.121Z,23.06
2018-09-04T00:01:40.300Z,23.06
2018-09-04T00:02:11.526Z,23.08
2018-09-04T00:02:42.644Z,23.08
2018-09-04T00:03:13.812Z,23.05
2018-09-04T00:03:44.964Z,23.04
2018-09-04T00:04:16.161Z,23.04
2018-09-04T00:04:47.335Z,23.05
2018-09-04T00:05:18.455Z,23.06
2018-09-04T00:05:49.623Z,23.07
2018-09-04T00:06:20.865Z,23.09
2018-09-04T00:06:52.060Z,23.10
2018-09-04T00:07:23.238Z,23.11
2018-09-04T00:07:54.352Z,23.01
2018-09-04T00:08:25.544Z,23.06
2018-09-04T00:08:56.681Z,23.11
2018-09-04T00:09:27.845Z,23.12
2018-09-04T00:09:58.964Z,23.11
2018-09-04T00:10:30.085Z,23.10
2018-09-04T00:11:01.252Z,23.11
2018-09-04T00:11:32.368Z,23.10
2018-09-04T00:12:03.563Z,23.09
2018-09-04T00:12:34.684Z,23.09
2018-09-04T00:13:05.796Z,23.11
2018-09-04T00:13:36.947Z,23.12
2018-09-04T00:14:08.156Z,23.09
2018-09-04T00:14:39.286Z,23.06
2018-09-04T00:15:10.463Z,23.07
2018-09-04T00:15:41.576Z,23.05
2018-09-04T00:16:12.746Z,23.05
2018-09-04T00:16:43.864Z,23.03
2018-09-04T00:17:14.988Z,23.02
2018-09-04T00:17:46.114Z,23.00
2018-09-04T00:18:17.342Z,22.98
2018-09-04T00:18:48.468Z,22.96
2018-09-04T00:19:19.684Z,22.98
2018-09-04T00:19:50.848Z,22.97
2018-09-04T00:20:22.077Z,22.98
2018-09-04T00:20:53.255Z,22.99
2018-09-04T00:21:24.384Z,23.01
2018-09-04T00:21:55.552Z,23.01
2018-09-04T00:22:26.680Z,23.00
2018-09-04T00:22:57.803Z,23.02
2018-09-04T00:23:28.968Z,23.01
2018-09-04T00:24:00.090Z,22.99
2018-09-04T00:24:31.256Z,22.97
2018-09-04T00:25:02.436Z,23.00
2018-09-04T00:25:33.668Z,23.02
2018-09-04T00:26:04.792Z,23.04
2018-09-04T00:26:35.966Z,23.05
2018-09-04T00:27:07.128Z,23.07
2018-09-04T00:27:38.272Z,23.07
2018-09-04T00:28:09.384Z,23.07
2018-09-04T00:28:40.549Z,23.06
2018-09-04T00:29:11.727Z,23.10
2018-09-04T00:29:42.873Z,23.10
2018-09-04T00:30:13.987Z,23.10
2018-09-04T00:30:45.152Z,23.10
2018-09-04T00:31:16.276Z,23.07
2018-09-04T00:31:47.390Z,23.05
2018-09-04T00:32:18.565Z,23.02
2018-09-04T00:32:49.693Z,22.99
2018-09-04T00:33:20.864Z,22.97
2018-09-04T00:33:52.038Z,22.97
2018-09-04T00:34:23.225Z,22.95
2018-09-04T00:34:54.457Z,22.89
2018-09-04T00:35:25.638Z,22.89
2018-09-04T00:35:56.759Z,22.89
2018-09-04T00:36:27.934Z,22.89
2018-09-04T00:36:59.043Z,22.91
2018-09-04T00:37:30.208Z,22.96
2018-09-04T00:38:01.364Z,22.99
2018-09-04T00:38:32.536Z,23.03
2018-09-04T00:39:03.657Z,23.03
2018-09-04T00:39:34.819Z,23.03
2018-09-04T00:40:05.954Z,23.04
2018-09-04T00:40:37.159Z,23.06
2018-09-04T00:41:08.289Z,23.02
2018-09-04T00:41:39.469Z,23.04
2018-09-04T00:42:10.685Z,23.04
2018-09-04T00:42:41.804Z,23.03
2018-09-04T00:43:12.928Z,23.04
2018-09-04T00:43:44.189Z,23.07
2018-09-04T00:44:15.400Z,23.07
2018-09-04T00:44:46.517Z,23.05
2018-09-04T00:45:17.750Z,23.06
2018-09-04T00:45:48.996Z,23.07
2018-09-04T00:46:20.229Z,23.07
2018-09-04T00:46:51.436Z,23.08
2018-09-04T00:47:22.587Z,23.09
2018-09-04T00:47:53.711Z,23.08
2018-09-04T00:48:24.883Z,23.08
2018-09-04T00:48:56.040Z,23.08
2018-09-04T00:49:27.183Z,23.09
2018-09-04T00:49:58.358Z,23.11
2018-09-04T00:50:29.600Z,23.10
2018-09-04T00:51:00.770Z,23.10
2018-09-04T00:51:31.893Z,23.14
2018-09-04T00:52:03.005Z,23.15
2018-09-04T00:52:34.186Z,23.19
2018-09-04T00:53:05.402Z,23.20
2018-09-04T00:53:36.514Z,23.20
2018-09-04T00:54:07.672Z,23.17
2018-09-04T00:54:38.834Z,23.16
2018-09-04T00:55:10.072Z,23.16
2018-09-04T00:55:41.264Z,23.16
2018-09-04T00:56:12.497Z,23.14
2018-09-04T00:56:43.661Z,23.14
2018-09-04T00:57:14.828Z,23.16
2018-09-04T00:57:46.064Z,23.16
2018-09-04T00:58:17.191Z,23.17
2018-09-04T00:58:48.355Z,23.19
2018-09-04T00:59:19.652Z,23.21
2018-09-04T00:59:50.825Z,23.20
2018-09-04T01:00:21.991Z,23.21
2018-09-04T01:00:53.186Z,23.21
2018-09-04T01:01:24.419Z,23.22
2018-09-04T01:01:55.600Z,23.19
2018-09-04T01:02:26.718Z,23.16
2018-09-04T01:02:57.837Z,23.14
2018-09-04T01:03:29.085Z,23.15
2018-09-04T01:04:00.265Z,23.18
2018-09-04T01:04:31.510Z,23.21
2018-09-04T01:05:02.672Z,23.22
2018-09-04T01:05:33.854Z,23.26
2018-09-04T01:06:05.087Z,23.29
2018-09-04T01:06:36.272Z,23.29
2018-09-04T01:07:07.464Z,23.23
2018-09-04T01:07:38.583Z,23.22
2018-09-04T01:08:09.748Z,23.17
2018-09-04T01:08:40.964Z,23.16
2018-09-04T01:09:12.075Z,23.18
2018-09-04T01:09:43.198Z,23.18
2018-09-04T01:10:14.376Z,23.16
2018-09-04T01:10:45.494Z,23.18
2018-09-04T01:11:16.669Z,23.18
2018-09-04T01:11:47.787Z,23.19
2018-09-04T01:12:19.046Z,23.21
2018-09-04T01:12:50.181Z,23.17
2018-09-04T01:13:21.360Z,23.18
2018-09-04T01:13:52.622Z,23.20
2018-09-04T01:14:23.788Z,23.18
2018-09-04T01:14:55.005Z,23.16
2018-09-04T01:15:26.185Z,23.15
2018-09-04T01:15:57.300Z,23.12
2018-09-04T01:16:28.483Z,23.10
2018-09-04T01:16:59.714Z,23.10
2018-09-04T01:17:30.946Z,23.09
2018-09-04T01:18:02.065Z,23.09
2018-09-04T01:18:33.184Z,23.06
2018-09-04T01:19:04.304Z,23.03
2018-09-04T01:19:35.429Z,23.02
2018-09-04T01:20:06.564Z,23.02
2018-09-04T01:20:37.733Z,23.01
2018-09-04T01:21:08.859Z,23.02
2018-09-04T01:21:40.026Z,23.00
2018-09-04T01:22:11.155Z,23.00
2018-09-04T01:22:42.320Z,23.00
2018-09-04T01:23:13.496Z,23.01
2018-09-04T01:23:44.657Z,23.01
2018-09-04T01:24:15.782Z,23.02
2018-09-04T01:24:46.952Z,23.02
2018-09-04T01:25:18.070Z,22.99
2018-09-04T01:25:49.279Z,22.99
2018-09-04T01:26:20.457Z,22.97
2018-09-04T01:26:51.628Z,22.99
2018-09-04T01:27:22.752Z,22.99
2018-09-04T01:27:53.992Z,23.00
2018-09-04T01:28:25.130Z,23.00
2018-09-04T01:28:56.282Z,23.04
2018-09-04T01:29:27.445Z,23.09
2018-09-04T01:29:59.144Z,23.13
2018-09-04T01:30:30.424Z,23.17
2018-09-04T01:31:01.545Z,23.20
2018-09-04T01:31:32.782Z,23.21
2018-09-04T01:32:03.910Z,23.22
2018-09-04T01:32:35.077Z,23.22
2018-09-04T01:33:06.296Z,23.23
2018-09-04T01:33:37.534Z,23.21
2018-09-04T01:34:08.745Z,23.19
2018-09-04T01:34:39.932Z,23.20
2018-09-04T01:35:11.109Z,23.21
2018-09-04T01:35:42.348Z,23.20
2018-09-04T01:36:13.570Z,23.18
2018-09-04T01:36:44.744Z,23.19
2018-09-04T01:37:15.880Z,23.21
2018-09-04T01:37:47.044Z,23.21
2018-09-04T01:38:18.261Z,23.23
2018-09-04T01:38:49.475Z,23.22
2018-09-04T01:39:20.644Z,23.18
2018-09-04T01:39:51.832Z,23.18
2018-09-04T01:40:23.107Z,23.20
2018-09-04T01:40:54.288Z,23.21
2018-09-04T01:41:25.434Z,23.21
2018-09-04T01:41:56.601Z,23.19
2018-09-04T01:42:27.797Z,23.20
2018-09-04T01:42:58.972Z,23.21
2018-09-04T01:43:30.201Z,23.25
2018-09-04T01:44:01.372Z,23.28
2018-09-04T01:44:32.493Z,23.30
2018-09-04T01:45:03.661Z,23.32
2018-09-04T01:45:34.772Z,23.31
2018-09-04T01:46:05.999Z,23.27
2018-09-04T01:46:37.115Z,23.26
2018-09-04T01:47:08.280Z,23.24
2018-09-04T01:47:39.408Z,23.24
2018-09-04T01:48:10.528Z,23.26
2018-09-04T01:48:41.653Z,23.28
2018-09-04T01:49:12.769Z,23.30
2018-09-04T01:49:44.000Z,23.32
2018-09-04T01:50:15.236Z,23.34
2018-09-04T01:50:46.362Z,23.33
2018-09-04T01:51:17.576Z,23.34
2018-09-04T01:51:48.814Z,23.35
2018-09-04T01:52:19.993Z,23.33
2018-09-04T01:52:51.167Z,23.32
2018-09-04T01:53:22.345Z,23.33
2018-09-04T01:53:53.527Z,23.38
2018-09-04T01:54:24.702Z,23.38
2018-09-04T01:54:55.881Z,23.40
2018-09-04T01:55:27.109Z,23.41
2018-09-04T01:55:58.345Z,23.39
2018-09-04T01:56:29.597Z,23.36
2018-09-04T01:57:00.772Z,23.36
2018-09-04T01:57:31.891Z,23.34
2018-09-04T01:58:03.083Z,23.35
2018-09-04T01:58:34.269Z,23.36
2018-09-04T01:59:05.437Z,23.35
2018-09-04T01:59:36.594Z,23.33
2018-09-04T02:00:07.766Z,23.33
2018-09-04T02:00:38.949Z,23.29
2018-09-04T02:01:10.133Z,23.33
2018-09-04T02:01:41.310Z,23.35
2018-09-04T02:02:12.539Z,23.38
2018-09-04T02:02:43.724Z,23.39
2018-09-04T02:03:14.848Z,23.38
2018-09-04T02:03:46.045Z,23.41
2018-09-04T02:04:17.170Z,23.43
2018-09-04T02:04:48.278Z,23.42
2018-09-04T02:05:19.506Z,23.43
2018-09-04T02:05:50.624Z,23.44
2018-09-04T02:06:21.737Z,23.43
2018-09-04T02:06:52.880Z,23.43
2018-09-04T02:07:24.056Z,23.42
2018-09-04T02:07:55.220Z,23.39
2018-09-04T02:08:26.402Z,23.37
2018-09-04T02:08:57.524Z,23.40
2018-09-04T02:09:28.756Z,23.41
2018-09-04T02:09:59.993Z,23.39
2018-09-04T02:10:31.213Z,23.38
2018-09-04T02:11:02.344Z,23.37
2018-09-04T02:11:33.455Z,23.38
2018-09-04T02:12:04.628Z,23.38
2018-09-04T02:12:35.746Z,23.38
2018-09-04T02:13:06.921Z,23.30
2018-09-04T02:13:38.148Z,23.21
2018-09-04T02:14:09.336Z,23.15
2018-09-04T02:14:40.458Z,23.13
2018-09-04T02:15:11.567Z,23.12
2018-09-04T02:15:42.769Z,23.11
2018-09-04T02:16:13.945Z,23.08
2018-09-04T02:16:45.068Z,23.05
2018-09-04T02:17:16.244Z,23.02
2018-09-04T02:17:47.356Z,22.99
2018-09-04T02:18:18.520Z,22.96
2018-09-04T02:18:49.753Z,22.97
2018-09-04T02:19:20.890Z,23.00
2018-09-04T02:19:52.109Z,23.00
2018-09-04T02:20:23.284Z,22.99
2018-09-04T02:20:54.453Z,23.00
2018-09-04T02:21:25.639Z,23.01
2018-09-04T02:21:56.808Z,22.98
2018-09-04T02:22:27.978Z,22.99
2018-09-04T02:22:59.209Z,22.99
2018-09-04T02:23:30.384Z,23.01
2018-09-04T02:24:01.517Z,23.02
2018-09-04T02:24:32.637Z,23.02
2018-09-04T02:25:03.753Z,23.04
2018-09-04T02:25:34.864Z,23.05
2018-09-04T02:26:06.077Z,23.07
2018-09-04T02:26:37.195Z,23.05
2018-09-04T02:27:08.307Z,23.05
2018-09-04T02:27:39.453Z,23.01
2018-09-04T02:28:10.572Z,22.97
2018-09-04T02:28:41.741Z,22.96
2018-09-04T02:29:12.931Z,22.95
2018-09-04T02:29:44.092Z,22.93
2018-09-04T02:30:15.243Z,22.92
2018-09-04T02:30:46.356Z,22.90
2018-09-04T02:31:17.502Z,22.86
2018-09-04T02:31:48.718Z,22.83
2018-09-04T02:32:19.929Z,22.87
2018-09-04T02:32:51.118Z,22.90
2018-09-04T02:33:22.293Z,22.91
2018-09-04T02:33:53.480Z,22.91
2018-09-04T02:34:24.663Z,22.91
2018-09-04T02:34:55.798Z,22.90
2018-09-04T02:35:26.944Z,22.92
2018-09-04T02:35:58.124Z,22.92
2018-09-04T02:36:29.279Z,22.95
2018-09-04T02:37:00.546Z,22.96
2018-09-04T02:37:31.668Z,22.97
2018-09-04T02:38:02.791Z,22.98
2018-09-04T02:38:33.970Z,22.97
2018-09-04T02:39:05.092Z,22.96
2018-09-04T02:39:36.264Z,22.93
2018-09-04T02:40:07.432Z,22.92
2018-09-04T02:40:38.705Z,22.88
2018-09-04T02:41:09.861Z,22.85
2018-09-04T02:41:41.048Z,22.83
2018-09-04T02:42:12.173Z,22.84
2018-09-04T02:42:43.304Z,22.88
2018-09-04T02:43:14.432Z,22.89
2018-09-04T02:43:45.657Z,22.92
2018-09-04T02:44:16.841Z,22.96
2018-09-04T02:44:48.004Z,22.98
2018-09-04T02:45:19.179Z,22.99
2018-09-04T02:45:50.320Z,23.00
2018-09-04T02:46:21.433Z,23.01
2018-09-04T02:46:52.740Z,23.00
2018-09-04T02:47:23.853Z,23.00
2018-09-04T02:47:55.090Z,22.98
2018-09-04T02:48:26.289Z,22.98
2018-09-04T02:48:57.474Z,22.99
2018-09-04T02:49:28.650Z,23.00
2018-09-04T02:49:59.819Z,23.00
2018-09-04T02:50:31.004Z,23.01
2018-09-04T02:51:02.196Z,23.01
2018-09-04T02:51:33.465Z,23.03
2018-09-04T02:52:04.707Z,23.02
2018-09-04T02:52:35.869Z,23.02
2018-09-04T02:53:07.084Z,23.01
2018-09-04T02:53:38.256Z,23.00
2018-09-04T02:54:09.428Z,22.97
2018-09-04T02:54:40.649Z,22.95
2018-09-04T02:55:11.892Z,22.90
2018-09-04T02:55:43.077Z,22.90
2018-09-04T02:56:14.193Z,22.91
2018-09-04T02:56:45.312Z,22.93
2018-09-04T02:57:16.548Z,22.92
2018-09-04T02:57:47.667Z,22.96
2018-09-04T02:58:18.775Z,22.96
2018-09-04T02:58:49.891Z,22.96
2018-09-04T02:59:21.013Z,22.95
2018-09-04T02:59:52.188Z,22.92
2018-09-04T03:00:23.408Z,22.87
2018-09-04T03:00:54.592Z,22.80
2018-09-04T03:01:25.780Z,22.77
2018-09-04T03:01:56.912Z,22.75
2018-09-04T03:02:28.115Z,22.77
2018-09-04T03:02:59.238Z,22.75
2018-09-04T03:03:30.431Z,22.76
2018-09-04T03:04:01.613Z,22.74
2018-09-04T03:04:32.789Z,22.74
2018-09-04T03:05:03.914Z,22.73
2018-09-04T03:05:35.032Z,22.72
2018-09-04T03:06:06.197Z,22.70
2018-09-04T03:06:37.371Z,22.68
2018-09-04T03:07:08.500Z,22.65
2018-09-04T03:07:39.756Z,22.61
2018-09-04T03:08:10.933Z,22.61
2018-09-04T03:08:42.696Z,22.60
2018-09-04T03:09:13.818Z,22.61
2018-09-04T03:09:45.086Z,22.61
2018-09-04T03:10:16.212Z,22.62
2018-09-04T03:10:47.330Z,22.61
2018-09-04T03:11:18.450Z,22.59
2018-09-04T03:11:49.679Z,22.58
2018-09-04T03:12:20.865Z,22.53
2018-09-04T03:12:52.108Z,22.50
2018-09-04T03:13:23.256Z,22.45
2018-09-04T03:13:54.433Z,22.38
2018-09-04T03:14:25.636Z,22.37
2018-09-04T03:14:56.837Z,22.34
2018-09-04T03:15:27.964Z,22.30
2018-09-04T03:15:59.129Z,22.27
2018-09-04T03:16:30.391Z,22.25
2018-09-04T03:17:01.548Z,22.26
2018-09-04T03:17:32.728Z,22.25
2018-09-04T03:18:03.844Z,22.26
2018-09-04T03:18:34.953Z,22.28
2018-09-04T03:19:06.072Z,22.27
2018-09-04T03:19:37.275Z,22.26
2018-09-04T03:20:08.463Z,22.25
2018-09-04T03:20:39.576Z,22.24
2018-09-04T03:21:10.680Z,22.23
2018-09-04T03:21:41.802Z,22.06
2018-09-04T03:22:13.022Z,22.20
2018-09-04T03:22:44.140Z,22.18
2018-09-04T03:23:15.272Z,22.18
2018-09-04T03:23:46.392Z,22.18
2018-09-04T03:24:17.617Z,22.16
2018-09-04T03:24:48.899Z,22.14
2018-09-04T03:25:20.023Z,22.13
2018-09-04T03:25:51.191Z,22.12
2018-09-04T03:26:22.310Z,22.10
2018-09-04T03:26:53.605Z,22.06
2018-09-04T03:27:24.723Z,22.04
2018-09-04T03:27:55.835Z,22.03
2018-09-04T03:28:26.999Z,22.01
2018-09-04T03:28:58.179Z,22.00
2018-09-04T03:29:29.328Z,22.01
2018-09-04T03:30:00.542Z,22.02
2018-09-04T03:30:31.731Z,22.00
2018-09-04T03:31:02.884Z,21.97
2018-09-04T03:31:34.008Z,21.93
2018-09-04T03:32:05.150Z,21.92
2018-09-04T03:32:36.369Z,21.92
2018-09-04T03:33:07.495Z,21.91
2018-09-04T03:33:38.605Z,21.93
2018-09-04T03:34:09.769Z,21.91
2018-09-04T03:34:40.979Z,21.90
2018-09-04T03:35:12.193Z,21.90
2018-09-04T03:35:43.373Z,21.92
2018-09-04T03:36:14.548Z,21.91
2018-09-04T03:36:45.693Z,21.90
2018-09-04T03:37:16.852Z,21.91
2018-09-04T03:37:48.041Z,21.91
2018-09-04T03:38:19.208Z,21.93
2018-09-04T03:38:50.320Z,21.92
2018-09-04T03:39:21.487Z,21.91
2018-09-04T03:39:52.623Z,21.92
2018-09-04T03:40:23.796Z,21.92
2018-09-04T03:40:54.908Z,21.94
2018-09-04T03:41:26.038Z,21.96
2018-09-04T03:41:57.156Z,21.99
2018-09-04T03:42:28.326Z,22.00
2018-09-04T03:42:59.485Z,22.01
2018-09-04T03:43:30.689Z,22.00
2018-09-04T03:44:01.865Z,22.02
2018-09-04T03:44:32.988Z,22.05
2018-09-04T03:45:04.118Z,22.04
2018-09-04T03:45:35.290Z,22.04
2018-09-04T03:46:06.404Z,22.03
2018-09-04T03:46:37.567Z,22.02
2018-09-04T03:47:08.691Z,22.04
2018-09-04T03:47:39.827Z,22.05
2018-09-04T03:48:10.987Z,22.06
2018-09-04T03:48:42.198Z,22.08
2018-09-04T03:49:13.349Z,22.09
2018-09-04T03:49:44.459Z,22.09
2018-09-04T03:50:15.571Z,22.09
2018-09-04T03:50:46.684Z,22.11
2018-09-04T03:51:17.796Z,22.15
2018-09-04T03:51:48.951Z,22.14
2018-09-04T03:52:20.156Z,22.09
2018-09-04T03:52:51.323Z,22.08
2018-09-04T03:53:22.436Z,22.07
2018-09-04T03:53:53.584Z,22.08
2018-09-04T03:54:24.692Z,22.09
2018-09-04T03:54:55.920Z,22.10
2018-09-04T03:55:27.101Z,22.12
2018-09-04T03:55:58.279Z,22.13
2018-09-04T03:56:29.388Z,22.12
2018-09-04T03:57:00.501Z,22.13
2018-09-04T03:57:31.897Z,22.13
2018-09-04T03:58:03.018Z,22.11
2018-09-04T03:58:34.191Z,22.10
2018-09-04T03:59:05.370Z,22.08
2018-09-04T03:59:36.486Z,22.08
2018-09-04T04:00:07.725Z,22.08
2018-09-04T04:00:38.901Z,22.08
2018-09-04T04:01:10.068Z,22.06
2018-09-04T04:01:41.194Z,22.05
2018-09-04T04:02:12.303Z,22.03
2018-09-04T04:02:43.477Z,22.03
2018-09-04T04:03:14.665Z,22.02
2018-09-04T04:03:45.843Z,22.02
2018-09-04T04:04:17.009Z,22.00
2018-09-04T04:04:48.125Z,21.99
2018-09-04T04:05:19.281Z,21.97
2018-09-04T04:05:50.496Z,21.96
2018-09-04T04:06:21.675Z,21.93
2018-09-04T04:06:52.860Z,21.89
2018-09-04T04:07:24.034Z,21.85
2018-09-04T04:07:55.147Z,21.83
2018-09-04T04:08:26.287Z,21.83
2018-09-04T04:08:57.410Z,21.83
2018-09-04T04:09:28.529Z,21.81
2018-09-04T04:09:59.636Z,21.83
2018-09-04T04:10:30.739Z,21.82
2018-09-04T04:11:01.949Z,21.81
2018-09-04T04:11:33.080Z,21.81
2018-09-04T04:12:04.262Z,21.81
2018-09-04T04:12:35.405Z,21.80
2018-09-04T04:13:06.519Z,21.80
2018-09-04T04:13:37.689Z,21.79
2018-09-04T04:14:08.859Z,21.78
2018-09-04T04:14:39.969Z,21.80
2018-09-04T04:15:11.082Z,21.80
2018-09-04T04:15:42.309Z,21.80
2018-09-04T04:16:13.424Z,21.81
2018-09-04T04:16:44.597Z,21.81
2018-09-04T04:17:15.789Z,21.82
2018-09-04T04:17:46.949Z,21.85
2018-09-04T04:18:18.120Z,21.84
2018-09-04T04:18:49.239Z,21.85
2018-09-04T04:19:20.453Z,21.87
2018-09-04T04:19:51.562Z,21.87
2018-09-04T04:20:22.723Z,21.88
2018-09-04T04:20:53.954Z,21.86
2018-09-04T04:21:25.133Z,21.85
2018-09-04T04:21:56.239Z,21.85
2018-09-04T04:22:27.401Z,21.89
2018-09-04T04:22:58.640Z,21.94
2018-09-04T04:23:29.822Z,21.99
2018-09-04T04:24:01.024Z,22.04
2018-09-04T04:24:32.200Z,22.05
2018-09-04T04:25:03.315Z,22.11
2018-09-04T04:25:34.484Z,22.12
2018-09-04T04:26:05.592Z,22.15
2018-09-04T04:26:36.699Z,22.17
2018-09-04T04:27:07.818Z,22.19
2018-09-04T04:27:38.992Z,22.24
2018-09-04T04:28:10.152Z,22.31
2018-09-04T04:28:41.271Z,22.33
2018-09-04T04:29:12.494Z,22.39
2018-09-04T04:29:43.608Z,22.43
2018-09-04T04:30:14.728Z,22.44
2018-09-04T04:30:45.888Z,22.49
2018-09-04T04:31:17.126Z,22.51
2018-09-04T04:31:48.349Z,22.53
2018-09-04T04:32:19.510Z,22.54
2018-09-04T04:32:50.709Z,22.53
2018-09-04T04:33:21.877Z,22.53
2018-09-04T04:33:53.003Z,22.55
2018-09-04T04:34:24.118Z,22.58
2018-09-04T04:34:55.333Z,22.64
2018-09-04T04:35:26.558Z,22.71
2018-09-04T04:35:57.728Z,22.77
2018-09-04T04:36:28.977Z,22.81
2018-09-04T04:37:00.156Z,22.89
2018-09-04T04:37:31.371Z,22.94
2018-09-04T04:38:02.530Z,23.02
2018-09-04T04:38:33.684Z,23.10
2018-09-04T04:39:04.877Z,23.14
2018-09-04T04:39:36.097Z,23.18
2018-09-04T04:40:07.289Z,23.23
2018-09-04T04:40:38.379Z,23.31
2018-09-04T04:41:09.550Z,23.40
2018-09-04T04:41:40.673Z,23.47
2018-09-04T04:42:11.819Z,23.51
2018-09-04T04:42:42.989Z,23.53
2018-09-04T04:43:14.164Z,23.57
2018-09-04T04:43:45.348Z,23.59
2018-09-04T04:44:16.521Z,23.63
2018-09-04T04:44:47.700Z,23.69
2018-09-04T04:45:18.865Z,23.73
2018-09-04T04:45:50.091Z,23.74
2018-09-04T04:46:21.257Z,23.77
2018-09-04T04:46:52.426Z,23.80
2018-09-04T04:47:23.545Z,23.81
2018-09-04T04:47:54.741Z,23.86
2018-09-04T04:48:25.980Z,23.91
2018-09-04T04:48:57.133Z,23.97
2018-09-04T04:49:28.314Z,24.02
2018-09-04T04:49:59.545Z,24.07
2018-09-04T04:50:30.761Z,24.12
2018-09-04T04:51:01.890Z,24.20
2018-09-04T04:51:33.005Z,24.25
2018-09-04T04:52:04.112Z,24.25
2018-09-04T04:52:35.245Z,24.23
2018-09-04T04:53:06.430Z,24.23
2018-09-04T04:53:37.556Z,24.24
2018-09-04T04:54:08.668Z,24.29
2018-09-04T04:54:39.836Z,24.37
2018-09-04T04:55:11.077Z,24.44
2018-09-04T04:55:42.232Z,24.46
2018-09-04T04:56:13.339Z,24.51
2018-09-04T04:56:44.534Z,24.58
2018-09-04T04:57:15.729Z,24.64
2018-09-04T04:57:46.897Z,24.64
2018-09-04T04:58:18.080Z,24.68
2018-09-04T04:58:49.209Z,24.72
2018-09-04T04:59:20.401Z,24.76
2018-09-04T04:59:51.537Z,24.80
2018-09-04T05:00:22.805Z,24.84
2018-09-04T05:00:54.017Z,24.92
2018-09-04T05:01:25.198Z,24.95
2018-09-04T05:01:56.324Z,25.00
2018-09-04T05:02:27.481Z,25.06
2018-09-04T05:02:58.666Z,25.11
2018-09-04T05:03:29.785Z,25.16
2018-09-04T05:04:01.015Z,25.22
2018-09-04T05:04:32.201Z,25.24
2018-09-04T05:05:03.417Z,25.27
2018-09-04T05:05:34.606Z,25.30
2018-09-04T05:06:05.791Z,25.27
2018-09-04T05:06:36.927Z,25.26
2018-09-04T05:07:08.150Z,25.25
2018-09-04T05:07:39.329Z,25.24
2018-09-04T05:08:10.448Z,25.25
2018-09-04T05:08:41.568Z,25.29
2018-09-04T05:09:12.802Z,25.38
2018-09-04T05:09:43.981Z,25.40
2018-09-04T05:10:15.171Z,25.44
2018-09-04T05:10:46.293Z,25.42
2018-09-04T05:11:17.478Z,25.45
2018-09-04T05:11:48.590Z,25.45
2018-09-04T05:12:19.814Z,25.58
2018-09-04T05:12:50.940Z,25.61
2018-09-04T05:13:22.062Z,25.58
2018-09-04T05:13:53.233Z,25.63
2018-09-04T05:14:24.368Z,25.54
2018-09-04T05:14:55.492Z,25.57
2018-09-04T05:15:26.692Z,25.44
2018-09-04T05:15:57.860Z,25.47
2018-09-04T05:16:28.989Z,25.53
2018-09-04T05:17:00.108Z,25.44
2018-09-04T05:17:31.328Z,25.54
2018-09-04T05:18:02.509Z,25.55
2018-09-04T05:18:33.648Z,25.59
2018-09-04T05:19:04.812Z,25.59
2018-09-04T05:19:35.948Z,25.64
2018-09-04T05:20:07.121Z,25.62
2018-09-04T05:20:38.313Z,25.72
2018-09-04T05:21:09.441Z,25.72
2018-09-04T05:21:40.601Z,25.75
2018-09-04T05:22:11.797Z,25.82
2018-09-04T05:22:43.082Z,25.82
2018-09-04T05:23:14.242Z,25.88
2018-09-04T05:23:45.428Z,25.91
2018-09-04T05:24:16.608Z,25.96
2018-09-04T05:24:47.738Z,26.02
2018-09-04T05:25:18.929Z,26.04
2018-09-04T05:25:50.054Z,26.04
2018-09-04T05:26:21.527Z,26.07
2018-09-04T05:26:52.643Z,26.08
2018-09-04T05:27:23.770Z,26.07
2018-09-04T05:27:54.940Z,26.09
2018-09-04T05:28:26.060Z,26.15
2018-09-04T05:28:57.238Z,26.10
2018-09-04T05:29:28.455Z,26.12
2018-09-04T05:29:59.601Z,26.08
2018-09-04T05:30:30.736Z,26.15
2018-09-04T05:31:01.920Z,26.16
2018-09-04T05:31:33.035Z,26.18
2018-09-04T05:32:04.155Z,26.21
2018-09-04T05:32:35.273Z,26.32
2018-09-04T05:33:06.532Z,26.36
2018-09-04T05:33:37.652Z,26.35
2018-09-04T05:34:08.824Z,26.23
2018-09-04T05:34:39.943Z,26.38
2018-09-04T05:35:11.172Z,26.40
2018-09-04T05:35:42.355Z,26.44
2018-09-04T05:36:13.527Z,26.41
2018-09-04T05:36:44.756Z,26.39
2018-09-04T05:37:15.893Z,26.44
2018-09-04T05:37:47.026Z,26.41
2018-09-04T05:38:18.187Z,26.42
2018-09-04T05:38:49.477Z,26.39
2018-09-04T05:39:20.662Z,26.32
2018-09-04T05:39:51.794Z,26.28
2018-09-04T05:40:22.973Z,26.24
2018-09-04T05:40:54.196Z,26.22
2018-09-04T05:41:25.361Z,26.18
2018-09-04T05:41:56.548Z,26.09
2018-09-04T05:42:27.721Z,26.17
2018-09-04T05:42:58.907Z,26.24
2018-09-04T05:43:30.060Z,26.29
2018-09-04T05:44:01.237Z,26.29
2018-09-04T05:44:32.426Z,26.37
2018-09-04T05:45:03.573Z,26.40
2018-09-04T05:45:34.691Z,26.41
2018-09-04T05:46:05.872Z,26.48
2018-09-04T05:46:37.057Z,26.54
2018-09-04T05:47:08.178Z,26.46
2018-09-04T05:47:39.305Z,26.50
2018-09-04T05:48:10.440Z,26.48
2018-09-04T05:48:41.632Z,26.44
2018-09-04T05:49:12.808Z,26.47
2018-09-04T05:49:44.048Z,26.49
2018-09-04T05:50:15.178Z,26.49
2018-09-04T05:50:46.403Z,26.51
2018-09-04T05:51:17.620Z,26.55
2018-09-04T05:51:48.752Z,26.53
2018-09-04T05:52:20.001Z,26.57
2018-09-04T05:52:51.199Z,26.54
2018-09-04T05:53:22.320Z,26.50
2018-09-04T05:53:53.639Z,26.48
2018-09-04T05:54:24.827Z,26.34
2018-09-04T05:54:55.987Z,26.39
2018-09-04T05:55:27.456Z,26.42
2018-09-04T05:55:58.581Z,26.51
2018-09-04T05:56:29.726Z,26.56
2018-09-04T05:57:00.982Z,26.54
2018-09-04T05:57:32.186Z,26.53
2018-09-04T05:58:03.315Z,26.55
2018-09-04T05:58:34.573Z,26.53
2018-09-04T05:59:05.852Z,26.48
2018-09-04T05:59:36.993Z,26.42
2018-09-04T06:00:08.271Z,26.44
2018-09-04T06:00:39.469Z,26.48
2018-09-04T06:01:10.654Z,26.54
2018-09-04T06:01:41.826Z,26.55
2018-09-04T06:02:13.083Z,26.49
2018-09-04T06:02:44.549Z,26.51
2018-09-04T06:03:15.784Z,26.57
2018-09-04T06:03:47.065Z,26.57
2018-09-04T06:04:18.260Z,26.57
2018-09-04T06:04:49.412Z,26.53
2018-09-04T06:05:20.679Z,26.52
2018-09-04T06:05:51.876Z,26.56
2018-09-04T06:06:23.748Z,26.62
2018-09-04T06:06:54.930Z,26.62
2018-09-04T06:07:26.051Z,26.71
2018-09-04T06:07:57.176Z,26.73
2018-09-04T06:08:28.309Z,26.78
2018-09-04T06:08:59.429Z,26.77
2018-09-04T06:09:30.640Z,26.81
2018-09-04T06:10:01.881Z,26.78
2018-09-04T06:10:33.088Z,26.78
2018-09-04T06:11:04.333Z,26.77
2018-09-04T06:11:35.497Z,26.68
2018-09-04T06:12:06.726Z,26.72
2018-09-04T06:12:37.986Z,26.77
2018-09-04T06:13:09.168Z,26.76
2018-09-04T06:13:40.354Z,26.65
2018-09-04T06:14:11.444Z,26.65
2018-09-04T06:14:42.688Z,26.68
2018-09-04T06:15:14.826Z,26.56
2018-09-04T06:15:46.106Z,26.68
2018-09-04T06:16:17.234Z,26.64
2018-09-04T06:16:48.461Z,26.63
2018-09-04T06:17:19.697Z,26.63
2018-09-04T06:17:50.842Z,26.65
2018-09-04T06:18:22.022Z,26.73
2018-09-04T06:18:53.146Z,26.80
2018-09-04T06:19:24.426Z,26.83
2018-09-04T06:19:55.664Z,26.85
2018-09-04T06:20:26.883Z,26.88
2018-09-04T06:20:58.021Z,26.83
2018-09-04T06:21:29.283Z,26.87
2018-09-04T06:22:00.538Z,26.89
2018-09-04T06:22:31.857Z,26.91
2018-09-04T06:23:03.060Z,26.92
2018-09-04T06:23:34.290Z,26.90
2018-09-04T06:24:05.480Z,26.87
2018-09-04T06:24:36.664Z,26.87
2018-09-04T06:25:07.922Z,26.82
2018-09-04T06:25:39.084Z,26.83
2018-09-04T06:26:10.286Z,26.84
2018-09-04T06:26:41.471Z,26.87
2018-09-04T06:27:12.668Z,26.88
2018-09-04T06:27:43.807Z,26.89
2018-09-04T06:28:14.960Z,26.89
2018-09-04T06:28:46.149Z,26.91
2018-09-04T06:29:17.288Z,26.96
2018-09-04T06:29:48.497Z,26.95
2018-09-04T06:30:19.632Z,26.96
2018-09-04T06:30:50.866Z,26.95
2018-09-04T06:31:22.066Z,27.04
2018-09-04T06:31:53.347Z,27.09
2018-09-04T06:32:24.630Z,27.06
2018-09-04T06:32:55.846Z,27.01
2018-09-04T06:33:27.009Z,26.99
2018-09-04T06:33:58.246Z,26.97
2018-09-04T06:34:29.378Z,26.94
2018-09-04T06:35:00.553Z,26.93
2018-09-04T06:35:33.000Z,26.88
2018-09-04T06:36:04.141Z,26.89
2018-09-04T06:36:35.413Z,26.95
2018-09-04T06:37:06.547Z,26.96
2018-09-04T06:37:37.712Z,26.96
2018-09-04T06:38:09.017Z,26.97
2018-09-04T06:38:40.212Z,27.02
2018-09-04T06:39:11.335Z,27.03
2018-09-04T06:39:42.548Z,27.02
2018-09-04T06:40:13.821Z,27.03
2018-09-04T06:40:45.020Z,27.02
2018-09-04T06:41:16.187Z,27.00